Time;durP1;ratioP1;P1;durP2;ratioP2;P2;SDS_P1;SDS_P2;PMS_P1;PMS_P2;Temp;Humidity;BMP_temperature;BMP_pressure;BME280_temperature;BME280_humidity;BME280_pressure;Samples;Min_cycle;Max_cycle;Signal;HPM_P1;HPM_P2
2022/09/18 00:02:42;;;;;;;;;;;22.80;44.50;21.60;100900.00;;;;5096738;27;19992;-67
2022/09/18 00:05:28;;;;;;;;;;;22.80;44.60;21.60;100896.00;;;;5095727;27;19923;-66
2022/09/18 00:08:14;;;;;;;;;;;22.80;44.60;21.60;100895.00;;;;5094748;27;19916;-67
2022/09/18 00:11:02;;;;;;;;;;;22.80;44.60;21.60;100899.00;;;;5096442;28;19912;-66
2022/09/18 00:13:48;;;;;;;;;;;22.80;44.50;21.60;100900.00;;;;5096549;27;19912;-67
2022/09/18 00:16:34;;;;;;;;;;;22.80;44.60;21.60;100908.00;;;;5093076;27;19918;-67
2022/09/18 00:19:20;;;;;;;;;;;22.80;44.50;21.60;100895.00;;;;5098446;27;19911;-67
2022/09/18 00:22:06;;;;;;;;;;;22.70;44.50;21.60;100897.00;;;;5095090;27;19912;-67
2022/09/18 00:24:52;;;;;;;;;;;22.80;44.50;21.60;100893.00;;;;5090838;27;19923;-67
2022/09/18 00:27:38;;;;;;;;;;;22.80;44.50;21.60;100897.00;;;;5101788;27;19915;-66
2022/09/18 00:30:24;;;;;;;;;;;22.80;44.50;21.60;100902.00;;;;5105929;27;20358;-67
2022/09/18 00:33:10;;;;;;;;;;;22.80;44.60;21.60;100912.00;;;;5097663;27;20353;-67
2022/09/18 00:36:00;;;;;;;;;;;22.70;44.50;21.60;100898.00;;;;5098852;27;20368;-67
2022/09/18 00:38:46;;;;;;;;;;;22.80;44.50;21.60;100902.00;;;;5100463;27;19965;-67
2022/09/18 00:41:34;;;;;;;;;;;22.80;44.60;21.60;100898.00;;;;5096830;27;19969;-67
2022/09/18 00:44:40;;;;;;;;;;;22.70;44.50;21.60;100917.00;;;;5093903;27;19966;-67
2022/09/18 00:47:34;;;;;;;;;;;22.70;44.50;21.60;100910.00;;;;5101919;27;19916;-67
2022/09/18 00:50:24;;;;;;;;;;;22.80;44.60;21.60;100903.00;;;;5088570;27;19938;-67
2022/09/18 00:53:10;;;;;;;;;;;22.70;44.60;21.60;100903.00;;;;5080575;28;19927;-67
2022/09/18 00:55:56;;;;;;;;;;;22.70;44.60;21.60;100906.00;;;;5086096;27;19918;-67
2022/09/18 00:58:42;;;;;;;;;;;22.70;44.50;21.60;100901.00;;;;5076853;28;19916;-67
2022/09/18 01:01:28;;;;;;;;;;;22.70;44.60;21.60;100906.00;;;;5098959;27;19964;-66
2022/09/18 01:04:14;;;;;;;;;;;22.70;44.60;21.60;100901.00;;;;5099363;27;19919;-67
2022/09/18 01:07:04;;;;;;;;;;;22.70;44.60;21.60;100900.00;;;;5098583;27;20297;-67
2022/09/18 01:10:17;;;;;;;;;;;22.70;44.60;21.60;100903.00;;;;5099458;28;19919;-67
2022/09/18 01:13:15;;;;;;;;;;;22.70;44.60;21.50;100903.00;;;;5092021;28;19997;-67
2022/09/18 01:16:23;;;;;;;;;;;22.70;44.60;21.50;100895.00;;;;5090190;27;19915;-66
2022/09/18 01:19:46;;;;;;;;;;;22.70;44.60;21.50;100894.00;;;;5099202;27;19947;-66
2022/09/18 01:22:54;;;;;;;;;;;22.70;44.60;21.50;100895.00;;;;5096390;27;20196;-67
2022/09/18 01:26:23;;;;;;;;;;;22.70;44.60;21.50;100898.00;;;;5102945;27;20261;-66
2022/09/18 01:29:29;;;;;;;;;;;22.70;44.60;21.50;100894.00;;;;5105291;28;19911;-66
2022/09/18 01:32:29;;;;;;;;;;;22.80;44.70;21.50;100894.00;;;;5085834;28;19912;-66
2022/09/18 01:35:22;;;;;;;;;;;22.60;44.60;21.50;100896.00;;;;5088606;28;20566;-67
2022/09/18 01:38:35;;;;;;;;;;;22.70;44.60;21.50;100898.00;;;;5104655;27;19918;-67
2022/09/18 01:41:24;;;;;;;;;;;22.60;44.60;21.50;100891.00;;;;5092204;27;19912;-67
2022/09/18 01:44:12;;;;;;;;;;;22.60;44.60;21.50;100888.00;;;;5099279;28;19931;-66
2022/09/18 01:46:58;;;;;;;;;;;22.60;45.30;21.50;100885.00;;;;5079044;28;19918;-67
2022/09/18 01:49:45;;;;;;;;;;;22.60;44.60;21.50;100891.00;;;;5079068;28;19916;-67
2022/09/18 01:52:34;;;;;;;;;;;22.60;44.70;21.50;100886.00;;;;5102378;28;20016;-66
2022/09/18 01:55:26;;;;;;;;;;;22.60;44.70;21.50;100889.00;;;;5097871;28;20049;-66
2022/09/18 01:58:16;;;;;;;;;;;22.60;44.70;21.50;100885.00;;;;5095344;28;19965;-67
2022/09/18 02:01:04;;;;;;;;;;;22.60;44.70;21.50;100880.00;;;;5081310;28;20403;-66
2022/09/18 02:03:53;;;;;;;;;;;22.70;44.70;21.50;100881.00;;;;5082829;28;20422;-67
2022/09/18 02:06:50;;;;;;;;;;;22.60;44.70;21.50;100881.00;;;;5089593;28;19918;-67
2022/09/18 02:09:36;;;;;;;;;;;22.60;44.70;21.50;100884.00;;;;5081514;28;19920;-66
2022/09/18 02:12:23;;;;;;;;;;;22.60;44.70;21.40;100881.00;;;;5106017;28;20170;-67
2022/09/18 02:15:12;;;;;;;;;;;22.60;44.70;21.50;100876.00;;;;5093014;28;19923;-66
2022/09/18 02:17:59;;;;;;;;;;;22.60;44.70;21.40;100877.00;;;;5085596;28;19912;-66
2022/09/18 02:20:45;;;;;;;;;;;22.70;44.70;21.40;100875.00;;;;5090463;28;20333;-66
2022/09/18 02:23:32;;;;;;;;;;;22.60;44.90;21.40;100869.00;;;;5103294;28;19920;-66
2022/09/18 02:26:18;;;;;;;;;;;22.50;44.60;21.40;100868.00;;;;5100754;28;19919;-66
2022/09/18 02:29:05;;;;;;;;;;;22.60;44.70;21.40;100867.00;;;;5081389;28;19912;-66
2022/09/18 02:31:51;;;;;;;;;;;22.60;44.70;21.40;100870.00;;;;5100806;28;20171;-66
2022/09/18 02:34:37;;;;;;;;;;;22.50;44.60;21.40;100876.00;;;;5100070;28;20314;-66
2022/09/18 02:37:32;;;;;;;;;;;22.50;44.70;21.40;100873.00;;;;5091478;28;19919;-66
2022/09/18 02:40:37;;;;;;;;;;;22.60;44.70;21.40;100870.00;;;;5100042;28;20006;-66
2022/09/18 02:43:37;;;;;;;;;;;22.60;44.70;21.40;100873.00;;;;5104970;27;19930;-67
2022/09/18 02:46:49;;;;;;;;;;;22.60;44.80;21.40;100870.00;;;;5076584;28;20357;-67
2022/09/18 02:49:47;;;;;;;;;;;22.60;44.80;21.40;100869.00;;;;5112828;27;20369;-67
2022/09/18 02:52:54;;;;;;;;;;;22.60;44.80;21.40;100858.00;;;;5100266;27;19937;-66
2022/09/18 02:55:56;;;;;;;;;;;22.60;44.80;21.40;100863.00;;;;5101717;27;19973;-66
2022/09/18 02:59:16;;;;;;;;;;;22.60;44.90;21.40;100861.00;;;;5081016;28;19970;-66
2022/09/18 03:02:02;;;;;;;;;;;22.60;44.80;21.40;100870.00;;;;5088250;28;19918;-67
2022/09/18 03:04:48;;;;;;;;;;;22.60;44.80;21.40;100873.00;;;;5097287;27;19942;-66
2022/09/18 03:07:34;;;;;;;;;;;22.60;44.90;21.40;100880.00;;;;5109337;27;19920;-67
2022/09/18 03:10:20;;;;;;;;;;;22.60;44.80;21.40;100885.00;;;;5097998;27;19993;-66
2022/09/18 03:13:06;;;;;;;;;;;22.60;44.80;21.40;100888.00;;;;5082982;27;19916;-66
2022/09/18 03:15:54;;;;;;;;;;;22.60;44.80;21.40;100887.00;;;;5093827;27;19919;-67
2022/09/18 03:18:40;;;;;;;;;;;22.60;44.80;21.40;100887.00;;;;5099294;27;19912;-67
2022/09/18 03:21:26;;;;;;;;;;;22.60;44.90;21.50;100888.00;;;;5101055;27;20026;-67
2022/09/18 03:24:12;;;;;;;;;;;22.60;44.90;21.50;100877.00;;;;5084756;28;19946;-67
2022/09/18 03:26:58;;;;;;;;;;;22.60;44.90;21.50;100883.00;;;;5098960;27;20242;-66
2022/09/18 03:29:44;;;;;;;;;;;22.70;44.90;21.50;100875.00;;;;5102232;27;19966;-67
2022/09/18 03:32:31;;;;;;;;;;;22.60;44.80;21.50;100875.00;;;;5105937;27;19912;-67
2022/09/18 03:35:17;;;;;;;;;;;22.60;44.80;21.50;100872.00;;;;5105107;27;20307;-66
2022/09/18 03:38:03;;;;;;;;;;;22.60;44.90;21.50;100871.00;;;;5082465;28;20357;-66
2022/09/18 03:40:49;;;;;;;;;;;22.50;44.80;21.50;100863.00;;;;5110480;27;19919;-66
2022/09/18 03:43:35;;;;;;;;;;;22.70;44.90;21.50;100858.00;;;;5099857;27;19927;-67
2022/09/18 03:46:22;;;;;;;;;;;22.60;44.90;21.50;100860.00;;;;5098918;27;20264;-66
2022/09/18 03:49:08;;;;;;;;;;;22.60;44.90;21.50;100867.00;;;;5098820;27;19922;-67
2022/09/18 03:51:54;;;;;;;;;;;22.60;44.90;21.50;100862.00;;;;5099270;27;19912;-67
2022/09/18 03:54:40;;;;;;;;;;;22.60;44.90;21.50;100860.00;;;;5102337;27;19972;-66
2022/09/18 03:57:26;;;;;;;;;;;22.60;44.90;21.50;100858.00;;;;5102229;27;19918;-67
2022/09/18 04:00:13;;;;;;;;;;;22.70;44.90;21.50;100862.00;;;;5099484;27;20269;-66
2022/09/18 04:02:59;;;;;;;;;;;22.60;44.90;21.50;100860.00;;;;5100733;27;19954;-66
2022/09/18 04:05:47;;;;;;;;;;;22.60;44.90;21.50;100858.00;;;;5084770;27;19916;-66
2022/09/18 04:08:34;;;;;;;;;;;22.60;44.90;21.50;100858.00;;;;5111608;27;19922;-67
2022/09/18 04:11:20;;;;;;;;;;;22.70;44.90;21.50;100864.00;;;;5081849;28;19912;-66
2022/09/18 04:14:06;;;;;;;;;;;22.60;44.90;21.50;100853.00;;;;5098080;27;19915;-66
2022/09/18 04:16:52;;;;;;;;;;;22.60;44.90;21.50;100856.00;;;;5093812;27;19911;-66
2022/09/18 04:19:38;;;;;;;;;;;22.60;44.90;21.50;100851.00;;;;5097904;27;19927;-67
2022/09/18 04:22:24;;;;;;;;;;;22.60;45.60;21.40;100850.00;;;;5105778;27;19911;-67
2022/09/18 04:25:10;;;;;;;;;;;22.60;44.90;21.50;100853.00;;;;5098235;28;19923;-66
2022/09/18 04:27:56;;;;;;;;;;;22.60;44.90;21.50;100844.00;;;;5099310;27;19915;-66
2022/09/18 04:30:42;;;;;;;;;;;22.60;44.90;21.50;100854.00;;;;5104502;27;19965;-67
2022/09/18 04:33:28;;;;;;;;;;;22.60;44.90;21.50;100847.00;;;;5102572;27;19919;-67
2022/09/18 04:36:17;;;;;;;;;;;22.60;44.90;21.40;100834.00;;;;5089869;27;19911;-67
2022/09/18 04:39:03;;;;;;;;;;;22.60;44.90;21.40;100833.00;;;;5091889;27;19919;-67
2022/09/18 04:41:50;;;;;;;;;;;22.60;44.90;21.40;100834.00;;;;5098582;27;20357;-67
2022/09/18 04:44:36;;;;;;;;;;;22.60;44.90;21.40;100848.00;;;;5097007;27;19923;-67
2022/09/18 04:47:22;;;;;;;;;;;22.60;44.90;21.40;100850.00;;;;5100201;27;19915;-66
2022/09/18 04:50:09;;;;;;;;;;;22.60;44.90;21.40;100843.00;;;;5097099;27;19959;-66
2022/09/18 04:52:55;;;;;;;;;;;22.60;44.90;21.40;100845.00;;;;5099845;27;20195;-67
2022/09/18 04:55:41;;;;;;;;;;;22.60;44.90;21.40;100847.00;;;;5099560;27;19919;-66
2022/09/18 04:58:27;;;;;;;;;;;22.60;45.00;21.40;100855.00;;;;5088523;27;20297;-66
2022/09/18 05:01:13;;;;;;;;;;;22.60;45.00;21.40;100862.00;;;;5098088;28;20372;-66
2022/09/18 05:03:59;;;;;;;;;;;22.60;45.00;21.40;100864.00;;;;5097018;27;19923;-67
2022/09/18 05:06:45;;;;;;;;;;;22.60;45.00;21.40;100858.00;;;;5104080;27;19911;-66
2022/09/18 05:09:31;;;;;;;;;;;22.60;45.00;21.40;100852.00;;;;5099117;27;19917;-67
2022/09/18 05:12:17;;;;;;;;;;;22.50;45.00;21.30;100846.00;;;;5104551;27;20353;-67
2022/09/18 05:15:03;;;;;;;;;;;22.50;44.90;21.30;100849.00;;;;5095012;28;19932;-67
2022/09/18 05:17:59;;;;;;;;;;;22.50;44.90;21.30;100834.00;;;;5093996;27;19912;-66
2022/09/18 05:20:45;;;;;;;;;;;22.50;45.00;21.30;100844.00;;;;5088334;28;20008;-67
2022/09/18 05:23:33;;;;;;;;;;;22.50;45.00;21.30;100847.00;;;;5102127;27;19924;-66
2022/09/18 05:26:19;;;;;;;;;;;22.50;45.00;21.40;100845.00;;;;5092366;27;20280;-66
2022/09/18 05:29:05;;;;;;;;;;;22.50;45.10;21.30;100843.00;;;;5100588;27;20272;-66
2022/09/18 05:31:51;;;;;;;;;;;22.50;45.10;21.40;100849.00;;;;5097968;27;20384;-66
2022/09/18 05:34:37;;;;;;;;;;;22.50;45.10;21.30;100839.00;;;;5090194;28;20317;-67
2022/09/18 05:37:23;;;;;;;;;;;22.50;45.10;21.30;100837.00;;;;5096979;27;19912;-67
2022/09/18 05:40:09;;;;;;;;;;;22.50;45.10;21.30;100845.00;;;;5098057;27;19923;-66
2022/09/18 05:42:55;;;;;;;;;;;22.50;45.10;21.30;100849.00;;;;5097285;28;19911;-67
2022/09/18 05:45:41;;;;;;;;;;;22.50;45.10;21.30;100850.00;;;;5107190;27;19923;-66
2022/09/18 05:48:27;;;;;;;;;;;22.60;45.10;21.30;100849.00;;;;5085066;28;19912;-66
2022/09/18 05:51:13;;;;;;;;;;;22.60;45.10;21.30;100857.00;;;;5094633;28;19915;-67
2022/09/18 05:53:59;;;;;;;;;;;22.40;45.00;21.30;100846.00;;;;5092950;28;19916;-67
2022/09/18 05:56:45;;;;;;;;;;;22.50;45.10;21.30;100843.00;;;;5099032;28;19953;-66
2022/09/18 05:59:31;;;;;;;;;;;22.50;45.10;21.30;100837.00;;;;5101605;28;19922;-67
2022/09/18 06:02:17;;;;;;;;;;;22.60;45.10;21.30;100844.00;;;;5100769;28;19918;-67
2022/09/18 06:05:04;;;;;;;;;;;22.50;45.20;21.30;100850.00;;;;5094923;28;20348;-67
2022/09/18 06:07:50;;;;;;;;;;;22.50;45.20;21.30;100834.00;;;;5102032;28;19912;-66
2022/09/18 06:10:38;;;;;;;;;;;22.50;45.10;21.30;100836.00;;;;5100629;28;20003;-66
2022/09/18 06:13:24;;;;;;;;;;;22.50;45.20;21.30;100833.00;;;;5094829;28;20258;-66
2022/09/18 06:16:10;;;;;;;;;;;22.50;45.20;21.30;100849.00;;;;5098388;28;20266;-66
2022/09/18 06:18:56;;;;;;;;;;;22.60;45.20;21.30;100845.00;;;;5099715;27;20386;-66
2022/09/18 06:21:42;;;;;;;;;;;22.50;45.10;21.30;100845.00;;;;5103418;27;19938;-67
2022/09/18 06:24:28;;;;;;;;;;;22.50;45.20;21.30;100843.00;;;;5099563;28;20281;-67
2022/09/18 06:27:14;;;;;;;;;;;22.50;45.20;21.30;100844.00;;;;5102412;27;20361;-66
2022/09/18 06:30:00;;;;;;;;;;;22.50;45.20;21.30;100844.00;;;;5108362;27;19911;-66
2022/09/18 06:32:46;;;;;;;;;;;22.50;45.20;21.30;100850.00;;;;5091268;27;20336;-66
2022/09/18 06:35:32;;;;;;;;;;;22.50;45.20;21.30;100839.00;;;;5107588;27;19962;-66
2022/09/18 06:38:18;;;;;;;;;;;22.50;45.20;21.30;100838.00;;;;5087453;27;19962;-67
2022/09/18 06:41:04;;;;;;;;;;;22.50;45.20;21.30;100848.00;;;;5090626;27;19916;-66
2022/09/18 06:43:50;;;;;;;;;;;22.50;45.20;21.30;100844.00;;;;5102148;27;19977;-66
2022/09/18 06:46:36;;;;;;;;;;;22.50;45.20;21.20;100855.00;;;;5100327;27;19915;-66
2022/09/18 06:49:22;;;;;;;;;;;22.50;45.20;21.10;100856.00;;;;5103119;27;19911;-66
2022/09/18 06:52:08;;;;;;;;;;;22.20;44.90;20.90;100857.00;;;;5099694;27;19919;-66
2022/09/18 06:54:54;;;;;;;;;;;22.30;44.90;20.80;100861.00;;;;5099768;28;19918;-66
2022/09/18 06:57:41;;;;;;;;;;;22.20;44.90;20.70;100861.00;;;;5099910;27;19911;-66
2022/09/18 07:00:27;;;;;;;;;;;22.10;44.90;20.60;100855.00;;;;5103065;27;20018;-66
2022/09/18 07:03:13;;;;;;;;;;;22.00;44.90;20.50;100857.00;;;;5103926;27;19916;-66
2022/09/18 07:05:59;;;;;;;;;;;21.90;44.90;20.50;100861.00;;;;5101007;27;19919;-66
2022/09/18 07:08:45;;;;;;;;;;;21.90;45.00;20.40;100862.00;;;;5104119;27;19912;-66
2022/09/18 07:11:31;;;;;;;;;;;21.80;45.10;20.30;100863.00;;;;5102804;27;19912;-66
2022/09/18 07:14:17;;;;;;;;;;;21.70;45.20;20.30;100870.00;;;;5098022;27;20277;-66
2022/09/18 07:17:07;;;;;;;;;;;21.70;45.30;20.20;100861.00;;;;5097570;27;20375;-66
2022/09/18 07:19:53;;;;;;;;;;;21.60;45.20;20.20;100863.00;;;;5110012;27;20273;-66
2022/09/18 07:22:39;;;;;;;;;;;21.50;45.30;20.10;100854.00;;;;5099309;27;19921;-66
2022/09/18 07:25:26;;;;;;;;;;;21.50;45.40;20.20;100848.00;;;;5098730;27;19961;-67
2022/09/18 07:28:12;;;;;;;;;;;21.40;45.60;20.20;100856.00;;;;5099112;27;19923;-66
2022/09/18 07:31:04;;;;;;;;;;;21.40;45.70;20.30;100858.00;;;;5099282;27;19927;-66
2022/09/18 07:33:52;;;;;;;;;;;21.40;45.90;20.30;100860.00;;;;5095455;28;20325;-66
2022/09/18 07:36:38;;;;;;;;;;;21.40;46.00;20.40;100857.00;;;;5100542;27;20372;-66
2022/09/18 07:39:24;;;;;;;;;;;21.40;46.00;20.40;100855.00;;;;5101342;28;19957;-66
2022/09/18 07:42:10;;;;;;;;;;;21.50;46.20;20.50;100859.00;;;;5098487;27;19916;-66
2022/09/18 07:44:56;;;;;;;;;;;21.50;46.20;20.50;100862.00;;;;5093153;27;19927;-66
2022/09/18 07:47:42;;;;;;;;;;;21.50;46.10;20.60;100853.00;;;;5098549;27;19990;-66
2022/09/18 07:50:28;;;;;;;;;;;21.70;46.20;20.60;100863.00;;;;5103301;27;19963;-66
2022/09/18 07:53:16;;;;;;;;;;;21.60;46.10;20.70;100864.00;;;;5096514;28;19950;-69
2022/09/18 07:56:09;;;;;;;;;;;21.70;46.20;20.70;100863.00;;;;5094459;27;20448;-66
2022/09/18 07:58:55;;;;;;;;;;;21.80;46.20;20.80;100859.00;;;;5097893;27;20493;-67
2022/09/18 08:01:41;;;;;;;;;;;21.80;46.20;20.80;100870.00;;;;5105250;27;20414;-66
2022/09/18 08:04:27;;;;;;;;;;;21.80;46.10;20.80;100871.00;;;;5100667;27;20006;-66
2022/09/18 08:07:13;;;;;;;;;;;21.90;46.10;20.90;100864.00;;;;5100250;27;19912;-66
2022/09/18 08:09:59;;;;;;;;;;;21.90;46.10;20.90;100870.00;;;;5094579;28;19957;-66
2022/09/18 08:12:45;;;;;;;;;;;21.90;46.10;20.90;100858.00;;;;5095684;27;19912;-66
2022/09/18 08:15:31;;;;;;;;;;;22.00;46.10;20.90;100858.00;;;;5100408;27;20269;-66
2022/09/18 08:18:19;;;;;;;;;;;22.00;46.10;21.00;100852.00;;;;5103943;27;19915;-66
2022/09/18 08:21:06;;;;;;;;;;;22.10;46.00;21.00;100858.00;;;;5098141;27;20672;-66
2022/09/18 08:23:52;;;;;;;;;;;22.20;46.10;21.00;100858.00;;;;5088310;28;19924;-66
2022/09/18 08:26:38;;;;;;;;;;;22.10;46.00;21.00;100864.00;;;;5103613;27;19923;-67
2022/09/18 08:29:24;;;;;;;;;;;22.10;46.00;21.00;100866.00;;;;5094711;27;19954;-68
2022/09/18 08:32:10;;;;;;;;;;;22.20;46.00;21.10;100865.00;;;;5094317;27;19919;-67
2022/09/18 08:34:58;;;;;;;;;;;22.30;46.00;21.10;100866.00;;;;5097444;27;19915;-67
2022/09/18 08:37:48;;;;;;;;;;;22.20;46.00;21.10;100864.00;;;;5072800;28;20329;-67
2022/09/18 08:40:41;;;;;;;;;;;22.20;46.00;21.10;100866.00;;;;5097899;27;19919;-67
2022/09/18 08:43:37;;;;;;;;;;;22.30;46.00;21.10;100866.00;;;;5086689;27;19919;-67
2022/09/18 08:46:31;;;;;;;;;;;22.30;45.90;21.10;100859.00;;;;5089115;27;19924;-67
2022/09/18 08:49:42;;;;;;;;;;;22.30;45.90;21.10;100859.00;;;;5095955;28;20008;-67
2022/09/18 08:52:29;;;;;;;;;;;22.30;45.90;21.10;100861.00;;;;5103197;27;19920;-66
2022/09/18 08:55:23;;;;;;;;;;;22.30;45.90;21.20;100859.00;;;;5077035;28;19916;-66
2022/09/18 08:58:14;;;;;;;;;;;22.30;45.90;21.20;100857.00;;;;5082893;28;19923;-65
2022/09/18 09:01:05;;;;;;;;;;;22.30;45.90;21.20;100859.00;;;;5079171;28;20206;-66
2022/09/18 09:04:28;;;;;;;;;;;22.40;45.90;21.20;100855.00;;;;5086830;27;19919;-66
2022/09/18 09:07:31;;;;;;;;;;;22.40;45.90;21.20;100856.00;;;;5103822;27;19959;-65
2022/09/18 09:10:42;;;;;;;;;;;22.40;45.90;21.20;100846.00;;;;5098583;28;19912;-66
2022/09/18 09:13:53;;;;;;;;;;;22.30;45.80;21.20;100846.00;;;;5095849;28;20350;-66
2022/09/18 09:16:43;;;;;;;;;;;22.30;45.80;21.20;100845.00;;;;5095054;27;19962;-66
2022/09/18 09:19:51;;;;;;;;;;;22.40;45.90;21.20;100846.00;;;;5094605;27;19912;-66
2022/09/18 09:22:39;;;;;;;;;;;22.40;45.90;21.10;100835.00;;;;5069571;27;20042;-66
2022/09/18 09:25:43;;;;;;;;;;;22.30;45.90;21.10;100852.00;;;;5099383;27;19915;-76
2022/09/18 09:28:52;;;;;;;;;;;22.40;45.90;21.10;100844.00;;;;5090217;27;19972;-66
2022/09/18 09:31:50;;;;;;;;;;;22.30;45.90;21.10;100839.00;;;;5099557;27;19922;-65
2022/09/18 09:34:43;;;;;;;;;;;22.30;45.90;21.10;100839.00;;;;5069776;27;19925;-66
2022/09/18 09:37:38;;;;;;;;;;;22.30;45.90;21.10;100833.00;;;;5078424;28;19923;-66
2022/09/18 09:40:44;;;;;;;;;;;22.30;45.90;21.10;100838.00;;;;5094451;27;20396;-65
2022/09/18 09:43:36;;;;;;;;;;;22.30;45.90;21.10;100830.00;;;;5090592;27;20007;-66
2022/09/18 09:46:33;;;;;;;;;;;22.30;45.90;21.10;100833.00;;;;5093731;27;19919;-66
2022/09/18 09:49:26;;;;;;;;;;;22.30;46.00;21.10;100831.00;;;;5103032;27;19912;-65
2022/09/18 09:52:23;;;;;;;;;;;22.30;46.00;21.10;100820.00;;;;5079154;28;19954;-66
2022/09/18 09:55:12;;;;;;;;;;;22.30;46.00;21.10;100820.00;;;;5098132;27;19912;-66
2022/09/18 09:58:03;;;;;;;;;;;22.30;46.00;21.10;100820.00;;;;5104921;27;19912;-66
2022/09/18 10:01:07;;;;;;;;;;;22.30;46.00;21.10;100815.00;;;;5095143;28;19961;-66
2022/09/18 10:04:03;;;;;;;;;;;22.30;46.00;21.10;100830.00;;;;5096941;28;19916;-66
2022/09/18 10:06:56;;;;;;;;;;;22.30;46.00;21.10;100818.00;;;;5111906;28;19915;-66
2022/09/18 10:09:47;;;;;;;;;;;22.20;46.00;21.10;100830.00;;;;5107215;28;19931;-66
2022/09/18 10:12:39;;;;;;;;;;;22.30;46.00;21.10;100832.00;;;;5106274;28;19915;-66
2022/09/18 10:15:45;;;;;;;;;;;22.30;46.10;21.10;100836.00;;;;5104549;28;19970;-66
2022/09/18 10:18:33;;;;;;;;;;;22.30;46.10;21.10;100826.00;;;;5109953;28;20435;-66
2022/09/18 10:21:25;;;;;;;;;;;22.20;46.00;21.10;100833.00;;;;5083489;28;20288;-66
2022/09/18 10:24:24;;;;;;;;;;;22.30;46.10;21.10;100835.00;;;;5078652;28;19924;-66
2022/09/18 10:27:11;;;;;;;;;;;22.20;46.00;21.10;100832.00;;;;5099019;28;19916;-66
2022/09/18 10:29:58;;;;;;;;;;;22.30;46.10;21.10;100831.00;;;;5084012;28;19916;-66
2022/09/18 10:32:44;;;;;;;;;;;22.30;46.10;21.10;100826.00;;;;5102815;28;20065;-66
2022/09/18 10:35:36;;;;;;;;;;;22.30;46.10;21.10;100838.00;;;;5119755;28;20010;-66
2022/09/18 10:38:31;;;;;;;;;;;22.30;46.10;21.10;100831.00;;;;5081272;28;20002;-66
2022/09/18 10:41:28;;;;;;;;;;;22.30;46.10;21.10;100835.00;;;;5095452;28;19912;-66
2022/09/18 10:44:13;;;;;;;;;;;22.30;46.10;21.10;100832.00;;;;5097493;28;20006;-66
2022/09/18 10:47:09;;;;;;;;;;;22.30;46.10;21.10;100837.00;;;;5097534;28;19916;-66
2022/09/18 10:49:56;;;;;;;;;;;22.30;46.20;21.10;100845.00;;;;5096022;28;20357;-66
2022/09/18 10:52:52;;;;;;;;;;;22.20;46.10;21.10;100848.00;;;;5085870;28;19988;-66
2022/09/18 10:55:49;;;;;;;;;;;22.30;46.10;21.10;100849.00;;;;5094676;28;19916;-66
2022/09/18 10:58:35;;;;;;;;;;;22.30;46.10;21.10;100848.00;;;;5084097;28;19926;-66
2022/09/18 11:01:22;;;;;;;;;;;22.30;46.10;21.10;100854.00;;;;5093048;28;19919;-66
2022/09/18 11:04:14;;;;;;;;;;;22.30;46.20;21.10;100839.00;;;;5094967;28;20505;-66
2022/09/18 11:07:06;;;;;;;;;;;22.30;46.20;21.10;100847.00;;;;5084825;27;19933;-66
2022/09/18 11:09:52;;;;;;;;;;;22.30;46.20;21.10;100838.00;;;;5082185;27;20357;-66
2022/09/18 11:12:38;;;;;;;;;;;22.30;46.20;21.10;100848.00;;;;5089921;27;19965;-66
2022/09/18 11:15:26;;;;;;;;;;;22.30;46.20;21.20;100843.00;;;;5084228;28;19911;-66
2022/09/18 11:18:12;;;;;;;;;;;22.30;46.20;21.20;100845.00;;;;5105578;27;21689;-66
2022/09/18 11:21:00;;;;;;;;;;;22.30;46.20;21.20;100851.00;;;;5094502;28;20273;-66
2022/09/18 11:23:46;;;;;;;;;;;22.30;46.20;21.20;100859.00;;;;5092551;27;19916;-66
2022/09/18 11:26:32;;;;;;;;;;;22.40;46.20;21.20;100861.00;;;;5097026;27;19920;-67
2022/09/18 11:29:23;;;;;;;;;;;22.30;46.20;21.20;100859.00;;;;5095986;28;19968;-66
2022/09/18 11:32:16;;;;;;;;;;;22.40;46.30;21.20;100851.00;;;;5096500;27;19958;-66
2022/09/18 11:35:04;;;;;;;;;;;22.40;46.20;21.20;100857.00;;;;5101944;27;19927;-66
2022/09/18 11:37:52;;;;;;;;;;;22.40;46.20;21.20;100837.00;;;;5097155;27;19969;-66
2022/09/18 11:40:47;;;;;;;;;;;22.40;46.20;21.20;100823.00;;;;5088636;27;19917;-66
2022/09/18 11:43:34;;;;;;;;;;;22.40;46.20;21.20;100827.00;;;;5083339;27;19912;-66
2022/09/18 11:46:39;;;;;;;;;;;22.40;46.20;21.20;100819.00;;;;5088037;28;19919;-66
2022/09/18 11:49:28;;;;;;;;;;;22.40;46.20;21.20;100815.00;;;;5102676;27;19998;-66
2022/09/18 11:52:20;;;;;;;;;;;22.40;46.20;21.20;100812.00;;;;5099047;27;19911;-66
2022/09/18 11:55:42;;;;;;;;;;;22.40;46.20;21.20;100814.00;;;;5091412;28;20285;-66
2022/09/18 11:58:48;;;;;;;;;;;22.40;46.20;21.20;100797.00;;;;5094249;27;19918;-66
2022/09/18 12:01:40;;;;;;;;;;;22.40;46.20;21.20;100798.00;;;;5090674;28;19912;-66
2022/09/18 12:04:51;;;;;;;;;;;22.40;46.20;21.20;100804.00;;;;5086707;27;20473;-66
2022/09/18 12:07:43;;;;;;;;;;;22.40;46.20;21.20;100799.00;;;;5092354;27;19923;-66
2022/09/18 12:11:03;;;;;;;;;;;22.40;46.20;21.20;100808.00;;;;5085846;27;20421;-66
2022/09/18 12:14:14;;;;;;;;;;;22.30;46.10;21.20;100803.00;;;;5073271;28;19957;-66
2022/09/18 12:17:15;;;;;;;;;;;22.40;46.20;21.20;100806.00;;;;5091700;27;20533;-66
2022/09/18 12:20:04;;;;;;;;;;;22.30;46.10;21.20;100799.00;;;;5084120;27;19947;-66
2022/09/18 12:23:00;;;;;;;;;;;22.30;46.20;21.20;100799.00;;;;5077771;27;19916;-66
2022/09/18 12:25:54;;;;;;;;;;;22.30;46.20;21.10;100798.00;;;;5083065;27;19967;-66
2022/09/18 12:28:44;;;;;;;;;;;22.40;46.20;21.20;100799.00;;;;5091547;27;19915;-66
2022/09/18 12:31:48;;;;;;;;;;;22.40;46.20;21.10;100794.00;;;;5095410;27;19916;-67
2022/09/18 12:34:57;;;;;;;;;;;22.30;46.20;21.10;100789.00;;;;5104828;27;19912;-66
2022/09/18 12:37:49;;;;;;;;;;;22.30;46.20;21.10;100784.00;;;;5093709;27;19923;-66
2022/09/18 12:40:36;;;;;;;;;;;22.30;46.20;21.10;100772.00;;;;5102776;27;19923;-66
2022/09/18 12:43:28;;;;;;;;;;;22.30;46.20;21.10;100779.00;;;;5099937;27;19941;-66
2022/09/18 12:46:44;;;;;;;;;;;22.30;46.20;21.10;100772.00;;;;5094634;27;19919;-66
2022/09/18 12:49:55;;;;;;;;;;;22.30;46.20;21.10;100769.00;;;;5079673;28;19915;-66
2022/09/18 12:53:03;;;;;;;;;;;22.30;46.20;21.10;100765.00;;;;5098358;27;19922;-66
2022/09/18 12:55:53;;;;;;;;;;;22.30;46.20;21.10;100773.00;;;;5093941;27;19947;-66
2022/09/18 12:58:57;;;;;;;;;;;22.30;46.20;21.10;100774.00;;;;5101682;27;20444;-66
2022/09/18 13:01:49;;;;;;;;;;;22.30;46.20;21.10;100767.00;;;;5089251;28;19912;-66
2022/09/18 13:04:38;;;;;;;;;;;22.30;46.20;21.10;100765.00;;;;5083323;27;19966;-66
2022/09/18 13:07:27;;;;;;;;;;;22.30;46.30;21.10;100765.00;;;;5084907;28;19912;-66
2022/09/18 13:10:25;;;;;;;;;;;22.30;46.20;21.10;100774.00;;;;5082599;28;19915;-66
2022/09/18 13:13:18;;;;;;;;;;;22.30;46.20;21.10;100772.00;;;;5086341;28;19920;-66
2022/09/18 13:16:08;;;;;;;;;;;22.30;46.20;21.10;100774.00;;;;5084860;28;19916;-66
2022/09/18 13:19:01;;;;;;;;;;;22.30;46.20;21.10;100769.00;;;;5098144;28;19962;-66
2022/09/18 13:21:47;;;;;;;;;;;22.30;46.90;21.10;100760.00;;;;5081794;28;19916;-66
2022/09/18 13:24:33;;;;;;;;;;;22.30;46.30;21.10;100761.00;;;;5091028;27;19943;-66
2022/09/18 13:27:20;;;;;;;;;;;22.30;46.30;21.10;100765.00;;;;5078903;27;19919;-67
2022/09/18 13:30:14;;;;;;;;;;;22.30;46.30;21.10;100766.00;;;;5084839;27;19977;-66
2022/09/18 13:33:01;;;;;;;;;;;22.30;46.30;21.10;100765.00;;;;5098543;28;19912;-66
2022/09/18 13:35:54;;;;;;;;;;;22.30;46.30;21.10;100766.00;;;;5099079;28;19974;-66
2022/09/18 13:38:40;;;;;;;;;;;22.30;46.30;21.10;100746.00;;;;5112532;27;20286;-66
2022/09/18 13:46:07;;;;;;;;;;;22.30;46.30;21.10;100755.00;;;;5093923;28;19923;-65
2022/09/18 13:48:55;;;;;;;;;;;22.30;46.30;21.10;100757.00;;;;5002811;28;19920;-67
2022/09/18 13:51:41;;;;;;;;;;;22.30;46.30;21.10;100747.00;;;;5077853;27;20352;-66